Weather at Beauvechain Airport - EBBE


metar: EBBE 250055Z AUTO 32004KT 2800 BKN230/// 11/10 Q1012 YLO

23 minuten geleden, om 00:55 UTC, de wind blies met windsnelheden van 2.1 meter per seconde(4.6 mijl per uur) vanuit Noordwest nabij Beauvechain airport. De temperatuur was 11 °C (52 °F), en de barometerdruk was 1,012 hPa (29.88 inHg). De relatieve vochtigheid was 93.5%. er was geen bewolking. De zichtbaarheid was 2.8 kilometer (1.7 mijl).

temperature image   windir image sky image 

Last 24 hour graph Beauvechain Airport - EBBE